Time;durP1;ratioP1;P1;durP2;ratioP2;P2;SDS_P1;SDS_P2;PMS_P1;PMS_P2;Temp;Humidity;BMP_temperature;BMP_pressure;BME280_temperature;BME280_humidity;BME280_pressure;Samples;Min_cycle;Max_cycle;Signal;HPM_P1;HPM_P2
2022/02/21 00:02:05;;;;;;;;;;;;;;;0.04;79.17;99261.88;5082054;28;20367;-65
2022/02/21 00:04:30;;;;;;;;;;;;;;;-0.02;79.25;99267.59;5099139;28;19920;-67
2022/02/21 00:06:56;;;;;;;;;;;;;;;-0.08;79.44;99261.13;5078475;28;19969;-66
2022/02/21 00:09:22;;;;;;;;;;;;;;;-0.08;79.65;99262.91;5097683;28;19919;-69
2022/02/21 00:11:48;;;;;;;;;;;;;;;-0.07;79.38;99273.25;5094092;28;19920;-70
2022/02/21 00:14:13;;;;;;;;;;;;;;;-0.10;79.71;99267.44;5092942;28;19935;-69
2022/02/21 00:16:39;;;;;;;;;;;;;;;-0.08;79.68;99271.59;5074677;28;19927;-66
2022/02/21 00:19:06;;;;;;;;;;;;;;;-0.08;79.63;99278.59;5092393;28;20026;-66
2022/02/21 00:21:32;;;;;;;;;;;;;;;-0.10;79.90;99277.91;5092651;28;19924;-73
2022/02/21 00:23:57;;;;;;;;;;;;;;;-0.11;79.85;99278.88;5095643;28;19993;-67
2022/02/21 00:26:22;;;;;;;;;;;;;;;-0.07;79.94;99275.03;5097846;28;19951;-70
2022/02/21 00:28:49;;;;;;;;;;;;;;;0.00;79.76;99270.94;5095285;28;19924;-67
2022/02/21 00:31:15;;;;;;;;;;;;;;;0.06;79.51;99280.88;5076756;28;19920;-72
2022/02/21 00:33:41;;;;;;;;;;;;;;;0.10;79.53;99274.41;5096401;28;19965;-66
2022/02/21 00:36:06;;;;;;;;;;;;;;;0.16;79.52;99275.69;5092350;28;19920;-67
2022/02/21 00:38:32;;;;;;;;;;;;;;;0.15;79.25;99268.78;5094203;28;20268;-66
2022/02/21 00:40:57;;;;;;;;;;;;;;;0.14;79.19;99269.75;5092658;28;19920;-69
2022/02/21 00:43:23;;;;;;;;;;;;;;;0.17;79.17;99274.72;5092394;28;19920;-67
2022/02/21 00:45:49;;;;;;;;;;;;;;;0.13;79.24;99268.91;5074563;28;19924;-68
2022/02/21 00:48:14;;;;;;;;;;;;;;;0.06;79.16;99266.97;5094890;28;19928;-66
2022/02/21 00:50:39;;;;;;;;;;;;;;;0.11;79.18;99268.22;5085142;28;19920;-64
2022/02/21 00:53:05;;;;;;;;;;;;;;;0.19;79.22;99267.56;5094255;28;20061;-66
2022/02/21 00:55:30;;;;;;;;;;;;;;;0.20;79.19;99272.66;5095984;28;19920;-68
2022/02/21 00:57:56;;;;;;;;;;;;;;;0.21;79.09;99263.84;5096335;28;19924;-66
2022/02/21 01:00:22;;;;;;;;;;;;;;;0.22;78.87;99262.88;5096219;28;19924;-69
2022/02/21 01:02:47;;;;;;;;;;;;;;;0.27;79.16;99273.78;5096006;28;19924;-68
2022/02/21 01:05:12;;;;;;;;;;;;;;;0.27;78.54;99271.16;5096206;28;19964;-64
2022/02/21 01:07:38;;;;;;;;;;;;;;;0.27;78.88;99265.91;5096159;28;20409;-69
2022/02/21 01:10:04;;;;;;;;;;;;;;;0.32;78.60;99268.16;5078153;28;20447;-69
2022/02/21 01:12:29;;;;;;;;;;;;;;;0.33;78.73;99269.00;5096044;28;20394;-69
2022/02/21 01:14:55;;;;;;;;;;;;;;;0.36;78.75;99268.72;5061595;28;19959;-64
2022/02/21 01:17:22;;;;;;;;;;;;;;;0.36;78.54;99263.47;5095588;28;20026;-66
2022/02/21 01:19:49;;;;;;;;;;;;;;;0.39;78.66;99265.81;5094380;28;19924;-67
2022/02/21 01:22:14;;;;;;;;;;;;;;;0.38;78.49;99256.31;5095831;28;19932;-69
2022/02/21 01:24:40;;;;;;;;;;;;;;;0.36;78.66;99258.25;5096214;28;19928;-67
2022/02/21 01:27:05;;;;;;;;;;;;;;;0.30;78.46;99254.38;5094527;28;19919;-65
2022/02/21 01:29:30;;;;;;;;;;;;;;;0.26;78.94;99259.03;5096529;28;19920;-71
2022/02/21 01:31:56;;;;;;;;;;;;;;;0.28;78.92;99258.88;5095440;28;19966;-66
2022/02/21 01:34:21;;;;;;;;;;;;;;;0.27;78.74;99260.69;5095991;28;20379;-69
2022/02/21 01:36:47;;;;;;;;;;;;;;;0.19;78.48;99254.47;5096870;28;19920;-68
2022/02/21 01:39:12;;;;;;;;;;;;;;;0.21;78.94;99261.22;5095802;28;20291;-67
2022/02/21 01:41:38;;;;;;;;;;;;;;;0.27;79.25;99255.44;5095537;28;20089;-65
2022/02/21 01:44:10;;;;;;;;;;;;;;;0.31;79.23;99261.28;5096037;28;19920;-70
2022/02/21 01:46:36;;;;;;;;;;;;;;;0.29;78.92;99250.09;5095454;28;19974;-69
2022/02/21 01:49:02;;;;;;;;;;;;;;;0.28;78.94;99257.09;5095395;28;19926;-65
2022/02/21 01:51:28;;;;;;;;;;;;;;;0.26;79.01;99253.78;5095364;28;20403;-66
2022/02/21 01:53:55;;;;;;;;;;;;;;;0.23;79.08;99259.28;5095476;28;19927;-67
2022/02/21 01:56:21;;;;;;;;;;;;;;;0.23;79.02;99250.63;5095285;28;20067;-67
2022/02/21 01:58:46;;;;;;;;;;;;;;;0.27;78.76;99258.06;5094923;28;20014;-68
2022/02/21 02:01:12;;;;;;;;;;;;;;;0.27;78.89;99250.19;5093724;28;19920;-70
2022/02/21 02:03:38;;;;;;;;;;;;;;;0.22;79.04;99239.31;5094773;28;19920;-66
2022/02/21 02:06:04;;;;;;;;;;;;;;;0.18;79.18;99243.16;5094555;28;19920;-67
2022/02/21 02:08:29;;;;;;;;;;;;;;;0.19;79.54;99257.06;5095014;28;20014;-68
2022/02/21 02:10:57;;;;;;;;;;;;;;;0.20;79.44;99251.72;5095082;28;19990;-71
2022/02/21 02:13:23;;;;;;;;;;;;;;;0.23;79.29;99248.81;5094915;28;19963;-67
2022/02/21 02:15:50;;;;;;;;;;;;;;;0.24;79.50;99247.03;5094884;28;19975;-67
2022/02/21 02:18:16;;;;;;;;;;;;;;;0.27;79.54;99252.00;5077090;28;19920;-68
2022/02/21 02:20:41;;;;;;;;;;;;;;;0.31;79.29;99256.03;5076736;28;19924;-66
2022/02/21 02:23:08;;;;;;;;;;;;;;;0.35;79.24;99251.34;5094661;28;19954;-66
2022/02/21 02:25:33;;;;;;;;;;;;;;;0.36;79.28;99253.81;5094669;28;20006;-68
2022/02/21 02:27:59;;;;;;;;;;;;;;;0.39;79.21;99257.97;5094634;28;20395;-68
2022/02/21 02:30:24;;;;;;;;;;;;;;;0.44;78.86;99250.53;5095604;28;19920;-70
2022/02/21 02:32:54;;;;;;;;;;;;;;;0.47;79.06;99252.88;5094788;28;19968;-66
2022/02/21 02:35:34;;;;;;;;;;;;;;;0.45;78.95;99257.44;5045523;28;19965;-67
2022/02/21 02:38:06;;;;;;;;;;;;;;;0.47;78.76;99263.34;5094467;28;20245;-68
2022/02/21 02:40:33;;;;;;;;;;;;;;;0.51;78.89;99264.72;5096360;28;19920;-70
2022/02/21 02:43:05;;;;;;;;;;;;;;;0.55;78.64;99260.88;5059990;28;19920;-70
2022/02/21 02:45:34;;;;;;;;;;;;;;;0.55;78.50;99255.63;5096265;28;19920;-69
2022/02/21 02:47:59;;;;;;;;;;;;;;;0.55;78.58;99259.09;5096446;28;19920;-73
2022/02/21 02:50:31;;;;;;;;;;;;;;;0.57;78.84;99256.31;5077648;28;20392;-72
2022/02/21 02:53:15;;;;;;;;;;;;;;;0.58;78.98;99264.09;5072322;28;19923;-68
2022/02/21 02:55:43;;;;;;;;;;;;;;;0.63;78.92;99253.19;5096944;28;19920;-70
2022/02/21 02:58:09;;;;;;;;;;;;;;;0.66;79.11;99254.72;5097840;28;19947;-65
2022/02/21 03:00:37;;;;;;;;;;;;;;;0.68;78.79;99250.97;5097920;28;20410;-69
2022/02/21 03:03:25;;;;;;;;;;;;;;;0.68;78.72;99250.97;5062552;28;19999;-72
2022/02/21 03:06:05;;;;;;;;;;;;;;;0.66;78.59;99254.72;5065102;28;20010;-71
2022/02/21 03:11:26;;;;;;;;;;;;;;;0.56;79.21;99255.50;5076114;28;19924;-66
2022/02/21 03:13:51;;;;;;;;;;;;;;;0.59;79.12;99251.81;5093822;28;19973;-67
2022/02/21 03:16:17;;;;;;;;;;;;;;;0.55;79.11;99253.03;5094015;28;20294;-67
2022/02/21 03:18:53;;;;;;;;;;;;;;;0.43;78.97;99244.47;5074224;28;19930;-72
2022/02/21 03:21:25;;;;;;;;;;;;;;;0.35;79.17;99246.94;5093665;28;20479;-70
2022/02/21 03:23:56;;;;;;;;;;;;;;;0.27;79.39;99244.97;5095738;28;19920;-67
2022/02/21 03:26:22;;;;;;;;;;;;;;;0.25;79.24;99241.66;5077599;28;20303;-71
2022/02/21 03:28:53;;;;;;;;;;;;;;;0.22;79.38;99241.94;5095127;28;19920;-69
2022/02/21 03:31:38;;;;;;;;;;;;;;;0.24;79.51;99245.25;5077150;28;20010;-70
2022/02/21 03:34:16;;;;;;;;;;;;;;;0.24;79.37;99239.19;5077229;28;20375;-70
2022/02/21 03:36:49;;;;;;;;;;;;;;;0.28;79.20;99230.09;5072229;28;19965;-68
2022/02/21 03:39:21;;;;;;;;;;;;;;;0.31;79.36;99235.09;5030969;28;20315;-72
2022/02/21 03:41:59;;;;;;;;;;;;;;;0.35;79.10;99235.63;5032964;28;19921;-69
2022/02/21 03:44:43;;;;;;;;;;;;;;;0.32;78.92;99225.44;5032414;28;20442;-70
2022/02/21 03:47:34;;;;;;;;;;;;;;;0.30;78.54;99236.88;4991914;28;20388;-71
2022/02/21 03:50:06;;;;;;;;;;;;;;;0.32;78.43;99235.91;5017217;28;19952;-69
2022/02/21 03:52:41;;;;;;;;;;;;;;;0.29;78.24;99227.38;5017470;28;19927;-70
2022/02/21 03:55:27;;;;;;;;;;;;;;;0.28;78.12;99230.91;5013559;28;19921;-69
2022/02/21 03:58:17;;;;;;;;;;;;;;;0.29;78.09;99227.38;5035856;28;19924;-71
2022/02/21 04:01:22;;;;;;;;;;;;;;;0.27;77.86;99231.03;5042910;28;19921;-68
2022/02/21 04:03:48;;;;;;;;;;;;;;;0.27;78.22;99224.03;5018077;28;19928;-70
2022/02/21 04:06:14;;;;;;;;;;;;;;;0.32;77.92;99222.81;5018610;28;19921;-70
2022/02/21 04:09:04;;;;;;;;;;;;;;;0.35;78.33;99225.16;5037705;28;19979;-71
2022/02/21 04:11:29;;;;;;;;;;;;;;;0.38;77.96;99227.50;5050049;28;19968;-72
2022/02/21 04:13:55;;;;;;;;;;;;;;;0.37;77.88;99233.72;5050283;28;20395;-72
2022/02/21 04:16:20;;;;;;;;;;;;;;;0.36;77.85;99232.06;5064831;28;19927;-72
2022/02/21 04:18:47;;;;;;;;;;;;;;;0.37;78.08;99228.47;5092400;28;19954;-72
2022/02/21 04:21:12;;;;;;;;;;;;;;;0.37;77.64;99233.72;5092565;28;19924;-73
2022/02/21 04:23:37;;;;;;;;;;;;;;;0.36;77.85;99226.81;5092667;28;20014;-71
2022/02/21 04:26:03;;;;;;;;;;;;;;;0.34;77.38;99233.97;5092855;28;19927;-67
2022/02/21 04:28:28;;;;;;;;;;;;;;;0.34;77.11;99228.75;5074521;28;20409;-70
2022/02/21 04:30:55;;;;;;;;;;;;;;;0.32;77.40;99231.50;5092700;28;20454;-71
2022/02/21 04:33:20;;;;;;;;;;;;;;;0.30;76.86;99239.50;5092291;28;19924;-75
2022/02/21 04:35:45;;;;;;;;;;;;;;;0.26;76.80;99243.31;5074933;28;20315;-73
2022/02/21 04:38:12;;;;;;;;;;;;;;;0.27;76.79;99241.53;5092217;28;19973;-70
2022/02/21 04:40:38;;;;;;;;;;;;;;;0.26;76.12;99247.72;5092499;28;20299;-72
2022/02/21 04:43:03;;;;;;;;;;;;;;;0.25;76.31;99246.91;5075617;28;19920;-70
2022/02/21 04:45:28;;;;;;;;;;;;;;;0.24;76.16;99245.25;5093191;28;19931;-73
2022/02/21 04:47:54;;;;;;;;;;;;;;;0.22;76.31;99247.16;5092486;28;19920;-73
2022/02/21 04:50:19;;;;;;;;;;;;;;;0.22;76.04;99247.16;5092966;28;19935;-69
2022/02/21 04:52:45;;;;;;;;;;;;;;;0.22;75.66;99241.94;5092560;28;19920;-72
2022/02/21 04:55:11;;;;;;;;;;;;;;;0.29;76.47;99245.69;5092263;28;19920;-69
2022/02/21 04:57:37;;;;;;;;;;;;;;;0.32;75.93;99246.38;5092297;28;20038;-69
2022/02/21 05:00:04;;;;;;;;;;;;;;;0.36;76.11;99237.28;5092286;28;19927;-68
2022/02/21 05:02:30;;;;;;;;;;;;;;;0.37;75.77;99241.56;5092140;28;20018;-71
2022/02/21 05:04:55;;;;;;;;;;;;;;;0.30;74.49;99242.09;5092985;28;19938;-67
2022/02/21 05:07:20;;;;;;;;;;;;;;;0.30;74.46;99244.72;5091903;28;19970;-70
2022/02/21 05:10:11;;;;;;;;;;;;;;;0.32;74.80;99238.53;5093098;28;20024;-71
2022/02/21 05:12:37;;;;;;;;;;;;;;;0.35;75.21;99238.25;5074474;28;20303;-70
2022/02/21 05:15:04;;;;;;;;;;;;;;;0.38;75.31;99240.59;5092425;28;19927;-71
2022/02/21 05:17:30;;;;;;;;;;;;;;;0.43;75.61;99231.38;5092285;28;19924;-70
2022/02/21 05:19:57;;;;;;;;;;;;;;;0.47;75.06;99232.75;5092249;28;19947;-69
2022/02/21 05:22:22;;;;;;;;;;;;;;;0.11;75.22;99181.00;5074194;28;20373;-73
2022/02/21 05:24:48;;;;;;;;;;;;;;;0.36;75.09;99237.28;5074422;28;19951;-69
2022/02/21 05:27:14;;;;;;;;;;;;;;;0.21;76.20;99236.81;5057597;28;19970;-75
2022/02/21 05:29:39;;;;;;;;;;;;;;;0.18;75.92;99239.72;5067794;28;19959;-72
2022/02/21 05:32:04;;;;;;;;;;;;;;;0.14;76.23;99244.41;5067124;28;19924;-66
2022/02/21 05:34:30;;;;;;;;;;;;;;;0.21;76.19;99240.28;5093309;28;19927;-71
2022/02/21 05:36:55;;;;;;;;;;;;;;;0.25;76.07;99251.31;5091831;28;20354;-68
2022/02/21 05:39:21;;;;;;;;;;;;;;;0.25;75.40;99249.50;5091974;28;19927;-68
2022/02/21 05:41:49;;;;;;;;;;;;;;;0.27;75.48;99244.97;5094092;28;19920;-65
2022/02/21 05:44:14;;;;;;;;;;;;;;;0.36;74.97;99245.97;5077728;28;20362;-71
2022/02/21 05:46:40;;;;;;;;;;;;;;;0.41;74.58;99245.56;5096043;28;20049;-66
2022/02/21 05:49:09;;;;;;;;;;;;;;;0.42;74.50;99234.13;5061887;28;19943;-69
2022/02/21 05:51:35;;;;;;;;;;;;;;;0.46;74.60;99244.19;5099216;28;19951;-69
2022/02/21 05:54:00;;;;;;;;;;;;;;;0.47;74.49;99242.41;5086627;28;19977;-66
2022/02/21 05:56:26;;;;;;;;;;;;;;;0.43;73.53;99241.00;5098546;28;19920;-69
2022/02/21 05:58:51;;;;;;;;;;;;;;;0.35;73.51;99246.13;5083139;28;19924;-68
2022/02/21 06:01:18;;;;;;;;;;;;;;;0.35;74.34;99246.13;5078227;28;19920;-68
2022/02/21 06:03:43;;;;;;;;;;;;;;;0.33;73.92;99250.66;5078588;28;20475;-66
2022/02/21 06:06:08;;;;;;;;;;;;;;;0.32;74.23;99251.63;5062147;28;20405;-66
2022/02/21 06:08:34;;;;;;;;;;;;;;;0.37;74.09;99246.81;5081658;28;19920;-70
2022/02/21 06:11:00;;;;;;;;;;;;;;;0.39;74.35;99247.50;5081631;28;19925;-66
2022/02/21 06:13:26;;;;;;;;;;;;;;;0.35;73.65;99246.94;5079852;28;20302;-67
2022/02/21 06:16:00;;;;;;;;;;;;;;;0.42;73.95;99247.22;5076470;28;19920;-70
2022/02/21 06:22:07;;;;;;;;;;;;;;;0.38;71.97;99236.19;4994463;28;19932;-68
2022/02/21 06:24:32;;;;;;;;;;;;;;;0.36;72.13;99237.28;5074747;28;19924;-70
2022/02/21 06:26:58;;;;;;;;;;;;;;;0.42;73.27;99249.84;5077758;28;19947;-68
2022/02/21 06:29:23;;;;;;;;;;;;;;;0.52;73.53;99238.41;5080050;28;19921;-67
2022/02/21 06:31:48;;;;;;;;;;;;;;;0.59;71.12;99242.16;5081241;28;19960;-68
2022/02/21 06:34:14;;;;;;;;;;;;;;;0.60;72.57;99243.00;5043428;28;20444;-68
2022/02/21 06:36:39;;;;;;;;;;;;;;;0.61;72.29;99242.03;5075145;28;19929;-68
2022/02/21 06:39:05;;;;;;;;;;;;;;;0.60;71.84;99245.59;5077388;28;20375;-68
2022/02/21 06:41:30;;;;;;;;;;;;;;;0.58;70.81;99237.06;5077214;28;19927;-68
2022/02/21 06:43:55;;;;;;;;;;;;;;;0.63;71.49;99240.09;5079361;28;19921;-68
2022/02/21 06:46:21;;;;;;;;;;;;;;;0.71;71.19;99239.41;5074554;28;19927;-65
2022/02/21 06:48:46;;;;;;;;;;;;;;;0.70;69.92;99241.19;5076015;28;20426;-70
2022/02/21 06:51:12;;;;;;;;;;;;;;;0.58;66.34;99237.06;5074491;28;20027;-66
2022/02/21 06:53:37;;;;;;;;;;;;;;;0.65;68.48;99235.53;5056932;28;19920;-66
2022/02/21 06:56:02;;;;;;;;;;;;;;;0.70;66.70;99230.72;5060910;28;19964;-69
2022/02/21 06:58:28;;;;;;;;;;;;;;;0.68;66.80;99237.88;5079685;28;19982;-69
2022/02/21 07:00:53;;;;;;;;;;;;;;;0.72;67.03;99231.41;5058688;28;19925;-65
2022/02/21 07:03:19;;;;;;;;;;;;;;;0.84;66.85;99232.06;5077026;28;20018;-68
2022/02/21 07:05:44;;;;;;;;;;;;;;;0.88;66.78;99226.44;5058165;28;19926;-67
2022/02/21 07:08:10;;;;;;;;;;;;;;;0.84;65.58;99232.91;5075871;28;19920;-68
2022/02/21 07:10:36;;;;;;;;;;;;;;;0.91;67.39;99234.03;5073623;28;19920;-68
2022/02/21 07:13:02;;;;;;;;;;;;;;;1.00;67.36;99237.59;5073831;28;20418;-69
2022/02/21 07:15:27;;;;;;;;;;;;;;;1.08;66.99;99234.28;5073746;28;20058;-68
2022/02/21 07:17:52;;;;;;;;;;;;;;;1.14;64.62;99242.41;5074317;28;19928;-70
2022/02/21 07:20:18;;;;;;;;;;;;;;;0.98;65.05;99238.72;5073430;28;20182;-68
2022/02/21 07:22:44;;;;;;;;;;;;;;;0.88;64.50;99241.34;5073369;28;19978;-67
2022/02/21 07:25:10;;;;;;;;;;;;;;;0.85;65.91;99239.81;5073359;28;19932;-69
2022/02/21 07:27:43;;;;;;;;;;;;;;;0.87;65.45;99247.56;5073065;28;19920;-67
2022/02/21 07:30:09;;;;;;;;;;;;;;;0.87;65.86;99242.31;5073038;28;19927;-68
2022/02/21 07:32:35;;;;;;;;;;;;;;;0.85;66.14;99250.28;5073025;28;20350;-66
2022/02/21 07:35:00;;;;;;;;;;;;;;;0.81;66.03;99259.41;5073068;28;19935;-67
2022/02/21 07:37:25;;;;;;;;;;;;;;;0.86;66.43;99259.81;5055255;28;19943;-69
2022/02/21 07:39:51;;;;;;;;;;;;;;;0.85;64.13;99255.53;5021986;28;20003;-69
2022/02/21 07:42:16;;;;;;;;;;;;;;;0.88;64.98;99265.75;5072779;28;19920;-68
2022/02/21 07:44:41;;;;;;;;;;;;;;;0.87;62.98;99269.34;5072567;28;19927;-70
2022/02/21 07:47:07;;;;;;;;;;;;;;;0.88;64.14;99268.38;5072923;28;19921;-69
2022/02/21 07:49:32;;;;;;;;;;;;;;;0.87;64.52;99273.78;5072877;28;19981;-69
2022/02/21 07:51:58;;;;;;;;;;;;;;;0.87;63.84;99260.66;5073194;28;19931;-70
2022/02/21 07:54:25;;;;;;;;;;;;;;;0.78;63.19;99275.41;5055096;28;19943;-68
2022/02/21 07:56:50;;;;;;;;;;;;;;;0.71;62.28;99265.59;5072442;28;19921;-65
2022/02/21 07:59:17;;;;;;;;;;;;;;;0.62;63.45;99262.00;5072329;28;20082;-73
2022/02/21 08:01:43;;;;;;;;;;;;;;;0.59;63.89;99254.44;5073203;28;19960;-70
2022/02/21 08:04:08;;;;;;;;;;;;;;;0.66;65.36;99249.47;5054542;28;20413;-67
2022/02/21 08:06:33;;;;;;;;;;;;;;;0.68;63.86;99247.53;5072997;28;20330;-68
2022/02/21 08:08:59;;;;;;;;;;;;;;;0.70;64.75;99241.19;5072575;28;19967;-72
2022/02/21 08:11:24;;;;;;;;;;;;;;;0.79;64.27;99240.34;5072588;28;19920;-69
2022/02/21 08:13:55;;;;;;;;;;;;;;;0.85;63.26;99245.03;5072527;28;20399;-65
2022/02/21 08:16:21;;;;;;;;;;;;;;;0.85;62.21;99238.97;5072678;28;20001;-67
2022/02/21 08:18:47;;;;;;;;;;;;;;;0.88;63.28;99244.78;5060504;28;20379;-64
2022/02/21 08:21:13;;;;;;;;;;;;;;;0.93;63.75;99242.59;5083757;28;19924;-63
2022/02/21 08:23:38;;;;;;;;;;;;;;;1.05;64.47;99243.25;5082710;28;19982;-63
2022/02/21 08:26:04;;;;;;;;;;;;;;;1.09;62.36;99247.25;5079282;28;19966;-68
2022/02/21 08:28:29;;;;;;;;;;;;;;;1.17;63.86;99243.97;5054507;28;19921;-67
2022/02/21 08:30:55;;;;;;;;;;;;;;;1.27;62.64;99222.94;5072290;28;19921;-68
2022/02/21 08:33:20;;;;;;;;;;;;;;;1.32;62.03;99223.34;5054439;28;19924;-68
2022/02/21 08:35:45;;;;;;;;;;;;;;;1.41;63.06;99220.69;5072234;28;19920;-70
2022/02/21 08:38:11;;;;;;;;;;;;;;;1.48;62.40;99220.97;5054325;28;20311;-67
2022/02/21 08:40:38;;;;;;;;;;;;;;;1.55;60.52;99219.44;5072018;28;20466;-71
2022/02/21 08:43:03;;;;;;;;;;;;;;;1.42;59.48;99218.91;5072249;28;19920;-69
2022/02/21 08:45:29;;;;;;;;;;;;;;;1.34;61.01;99214.38;5054337;28;19966;-69
2022/02/21 08:47:54;;;;;;;;;;;;;;;1.40;61.72;99213.78;5074416;28;20023;-70
2022/02/21 08:50:21;;;;;;;;;;;;;;;1.62;63.19;99219.69;5072920;28;19921;-68
2022/02/21 08:52:46;;;;;;;;;;;;;;;1.80;62.15;99210.91;5072115;28;19921;-69
2022/02/21 08:55:15;;;;;;;;;;;;;;;1.98;62.72;99205.72;5054011;28;19928;-67
2022/02/21 08:57:41;;;;;;;;;;;;;;;2.09;60.61;99200.28;5071647;28;19927;-70
2022/02/21 09:00:08;;;;;;;;;;;;;;;2.15;59.73;99194.44;5072119;28;20394;-69
2022/02/21 09:02:34;;;;;;;;;;;;;;;2.15;60.76;99194.44;5071877;28;20307;-68
2022/02/21 09:04:59;;;;;;;;;;;;;;;2.12;58.88;99193.91;5071902;28;19921;-66
2022/02/21 09:07:25;;;;;;;;;;;;;;;1.99;58.99;99204.75;5053935;28;19927;-70
2022/02/21 09:09:50;;;;;;;;;;;;;;;1.90;59.00;99205.63;5071632;28;19928;-71
2022/02/21 09:12:15;;;;;;;;;;;;;;;1.78;59.99;99197.13;5071334;28;19921;-68
2022/02/21 09:14:46;;;;;;;;;;;;;;;1.73;60.31;99201.13;5054689;28;19955;-66
2022/02/21 09:17:12;;;;;;;;;;;;;;;1.66;61.24;99198.25;5056452;28;19927;-66
2022/02/21 09:19:38;;;;;;;;;;;;;;;1.71;61.04;99184.69;5075791;28;20298;-69
2022/02/21 09:22:04;;;;;;;;;;;;;;;1.70;61.03;99196.16;5075504;28;19970;-66
2022/02/21 09:24:29;;;;;;;;;;;;;;;1.62;60.08;99201.31;5075679;28;19932;-71
2022/02/21 09:26:54;;;;;;;;;;;;;;;1.54;60.72;99195.00;5075554;28;19920;-67
2022/02/21 09:29:20;;;;;;;;;;;;;;;1.61;61.63;99191.78;5057684;28;19920;-68
2022/02/21 09:31:45;;;;;;;;;;;;;;;1.64;62.04;99197.56;5075356;28;20390;-67
2022/02/21 09:34:11;;;;;;;;;;;;;;;1.66;61.47;99195.63;5075540;28;19920;-70
2022/02/21 09:36:36;;;;;;;;;;;;;;;1.68;61.90;99193.69;5041048;28;19921;-70
2022/02/21 09:39:02;;;;;;;;;;;;;;;1.66;61.98;99181.69;5040790;28;20051;-71
2022/02/21 09:41:28;;;;;;;;;;;;;;;1.54;61.82;99181.88;5075526;28;19920;-69
2022/02/21 09:43:53;;;;;;;;;;;;;;;1.53;61.46;99176.78;5075544;28;20011;-69
2022/02/21 09:46:18;;;;;;;;;;;;;;;1.45;61.11;99176.66;5056740;28;20031;-67
2022/02/21 09:48:50;;;;;;;;;;;;;;;1.40;62.04;99174.44;5057567;28;19920;-66
2022/02/21 09:51:15;;;;;;;;;;;;;;;1.42;61.45;99171.69;5075199;28;19927;-67
2022/02/21 09:53:41;;;;;;;;;;;;;;;1.50;62.41;99172.63;5056827;28;19920;-67
2022/02/21 09:56:07;;;;;;;;;;;;;;;1.62;62.17;99173.28;5074478;28;19927;-70
2022/02/21 09:58:33;;;;;;;;;;;;;;;1.62;61.71;99169.81;5056625;28;20395;-66
2022/02/21 10:00:58;;;;;;;;;;;;;;;1.62;60.79;99167.19;5056628;28;19956;-66
2022/02/21 10:03:36;;;;;;;;;;;;;;;1.60;60.57;99158.66;5056575;28;19966;-66
2022/02/21 10:06:20;;;;;;;;;;;;;;;1.65;61.21;99159.03;5075163;28;19925;-70
2022/02/21 10:09:10;;;;;;;;;;;;;;;1.77;61.87;99157.91;5075044;28;19920;-70
2022/02/21 10:11:39;;;;;;;;;;;;;;;1.88;60.91;99144.56;5067167;28;19920;-71
2022/02/21 10:14:07;;;;;;;;;;;;;;;1.92;61.52;99150.34;5075007;28;19920;-67
2022/02/21 10:16:39;;;;;;;;;;;;;;;1.94;61.56;99145.78;5057196;28;19970;-69
2022/02/21 10:19:09;;;;;;;;;;;;;;;1.83;61.28;99141.56;5056173;28;19936;-67
2022/02/21 10:21:59;;;;;;;;;;;;;;;1.77;62.07;99139.53;5075035;28;19931;-70
2022/02/21 10:24:31;;;;;;;;;;;;;;;1.84;62.60;99140.59;5088128;28;19930;-65
2022/02/21 10:27:04;;;;;;;;;;;;;;;1.97;61.42;99143.66;5094531;28;20446;-71
2022/02/21 10:29:30;;;;;;;;;;;;;;;2.02;61.35;99136.16;5094468;28;19928;-67
2022/02/21 10:32:06;;;;;;;;;;;;;;;1.91;61.62;99139.00;5094581;28;19989;-68
2022/02/21 10:34:33;;;;;;;;;;;;;;;1.88;62.33;99134.06;5094559;28;19920;-70
2022/02/21 10:36:58;;;;;;;;;;;;;;;1.82;61.81;99134.66;5076451;28;19920;-70
2022/02/21 10:39:25;;;;;;;;;;;;;;;1.79;62.17;99134.94;5094220;28;20444;-66
2022/02/21 10:41:52;;;;;;;;;;;;;;;1.96;62.45;99131.53;5094390;28;20380;-69
2022/02/21 10:44:18;;;;;;;;;;;;;;;2.18;62.01;99119.78;5094497;28;19920;-67
2022/02/21 10:47:03;;;;;;;;;;;;;;;2.20;60.69;99111.75;5094441;28;19920;-69
2022/02/21 10:49:29;;;;;;;;;;;;;;;2.12;61.38;99109.88;5094318;28;19920;-67
2022/02/21 10:51:57;;;;;;;;;;;;;;;2.08;62.25;99114.59;5094139;28;20073;-70
2022/02/21 10:54:35;;;;;;;;;;;;;;;2.20;61.81;99111.75;5094095;28;19928;-67
2022/02/21 10:57:01;;;;;;;;;;;;;;;2.31;62.14;99106.25;5094471;28;19924;-67
2022/02/21 10:59:27;;;;;;;;;;;;;;;2.39;62.39;99116.84;5094108;28;19981;-67
2022/02/21 11:01:53;;;;;;;;;;;;;;;2.46;62.20;99110.03;5076265;28;19962;-66
2022/02/21 11:04:19;;;;;;;;;;;;;;;2.37;61.38;99095.16;5094153;28;19920;-67
2022/02/21 11:06:44;;;;;;;;;;;;;;;1.92;62.81;99093.41;5094722;28;19958;-69
2022/02/21 11:09:12;;;;;;;;;;;;;;;1.85;63.25;99097.59;5076199;28;19946;-68
2022/02/21 11:11:42;;;;;;;;;;;;;;;1.90;63.99;99095.34;5094222;28;19920;-68
2022/02/21 11:14:08;;;;;;;;;;;;;;;1.94;63.33;99096.72;5094005;28;19966;-66
2022/02/21 11:16:36;;;;;;;;;;;;;;;2.01;63.53;99100.38;5075655;28;20345;-69
2022/02/21 11:19:06;;;;;;;;;;;;;;;1.95;63.25;99106.25;5094992;28;19924;-70
2022/02/21 11:21:35;;;;;;;;;;;;;;;1.94;64.34;99096.72;5093448;28;20322;-70
2022/02/21 11:24:03;;;;;;;;;;;;;;;1.95;63.85;99098.38;5093276;28;19963;-69
2022/02/21 11:26:30;;;;;;;;;;;;;;;2.01;64.41;99102.19;5093707;28;19927;-68
2022/02/21 11:29:08;;;;;;;;;;;;;;;2.05;63.82;99103.56;5092889;28;20015;-72
2022/02/21 11:31:33;;;;;;;;;;;;;;;2.04;64.64;99094.88;5075208;28;19946;-72
2022/02/21 11:34:05;;;;;;;;;;;;;;;1.86;63.83;99107.97;5093305;28;19924;-72
2022/02/21 11:36:32;;;;;;;;;;;;;;;1.77;64.71;99105.41;5093358;28;20011;-72
2022/02/21 11:38:57;;;;;;;;;;;;;;;1.69;65.15;99113.16;5074484;28;19943;-74
2022/02/21 11:41:35;;;;;;;;;;;;;;;1.65;64.62;99114.44;5093209;28;20411;-68
2022/02/21 11:44:29;;;;;;;;;;;;;;;1.58;63.68;99122.06;5074973;28;19920;-67
2022/02/21 11:47:15;;;;;;;;;;;;;;;1.59;64.35;99123.72;5069077;28;19920;-67
2022/02/21 11:50:03;;;;;;;;;;;;;;;1.60;63.31;99128.00;5081944;28;20332;-68
2022/02/21 11:52:30;;;;;;;;;;;;;;;1.80;63.72;99120.84;5091858;28;20391;-66
2022/02/21 11:54:55;;;;;;;;;;;;;;;1.99;61.69;99123.34;5092004;28;19920;-67
2022/02/21 11:57:26;;;;;;;;;;;;;;;2.31;60.66;99104.47;5092960;28;20432;-68
2022/02/21 11:59:51;;;;;;;;;;;;;;;2.44;59.03;99094.41;5092667;28;19962;-66
2022/02/21 12:02:17;;;;;;;;;;;;;;;2.52;59.52;99088.38;5074589;28;20406;-67
2022/02/21 12:07:40;;;;;;;;;;;;;;;2.23;59.42;99065.00;5075214;28;19941;-69
2022/02/21 20:27:19;;;;;;;;;;;;;;;-0.20;88.22;98595.03;5089079;28;19997;-75
2022/02/21 20:29:49;;;;;;;;;;;;;;;-0.21;88.12;98592.59;5093701;28;19947;-73
2022/02/21 20:32:18;;;;;;;;;;;;;;;-0.24;88.56;98590.25;5078436;28;19924;-74
2022/02/21 21:22:03;;;;;;;;;;;;;;;0.05;86.61;98554.25;5919939;23;20246;-75
2022/02/21 21:28:10;;;;;;;;;;;;;;;;;;;;;
2022/02/21 21:34:46;;;;;;;;;;;;;;;0.15;86.53;98525.38;5177125;23;19967;-75
2022/02/21 21:41:00;;;;;;;;;;;;;;;0.12;86.31;98494.28;4899287;29;20006;-73
2022/02/21 21:43:40;;;;;;;;;;;;;;;0.10;85.38;98498.84;4873685;29;19986;-69
2022/02/21 21:46:35;;;;;;;;;;;;;;;0.09;86.02;98487.56;4901251;29;19923;-76
2022/02/21 21:49:22;;;;;;;;;;;;;;;0.16;86.15;98466.81;4901890;29;20453;-76
2022/02/21 21:51:51;;;;;;;;;;;;;;;0.21;86.05;98459.31;4943066;29;20022;-77
2022/02/21 21:57:39;;;;;;;;;;;;;;;0.17;85.73;98505.94;4905792;29;19985;-75
2022/02/21 22:07:35;;;;;;;;;;;;;;;0.18;85.92;98528.50;5023695;28;19948;-77
2022/02/21 22:10:21;;;;;;;;;;;;;;;0.15;85.98;98526.19;5022636;28;20409;-77
2022/02/21 22:12:48;;;;;;;;;;;;;;;0.11;85.73;98522.25;5026215;28;19922;-74
2022/02/21 22:15:35;;;;;;;;;;;;;;;0.16;85.55;98520.00;5024069;28;20012;-79
2022/02/21 22:21:00;;;;;;;;;;;;;;;0.21;85.62;98506.44;5025983;28;19993;-75
2022/02/21 22:26:40;;;;;;;;;;;;;;;0.17;86.07;98499.88;5004061;28;20426;-77
2022/02/21 22:29:44;;;;;;;;;;;;;;;0.16;85.74;98491.19;4985285;28;19930;-77
2022/02/21 22:32:34;;;;;;;;;;;;;;;0.24;85.82;98504.34;4987925;28;19929;-77
2022/02/21 22:34:59;;;;;;;;;;;;;;;0.29;85.13;98506.53;5006030;28;19990;-75
2022/02/21 22:44:24;;;;;;;;;;;;;;;0.27;85.00;98498.78;4960256;28;19994;-74
2022/02/21 22:46:49;;;;;;;;;;;;;;;0.23;85.69;98504.50;4976347;28;19977;-72
2022/02/21 22:49:15;;;;;;;;;;;;;;;0.23;85.63;98494.84;4992367;28;20383;-73
2022/02/21 22:51:40;;;;;;;;;;;;;;;0.28;85.74;98489.97;4993655;28;19928;-73
2022/02/21 22:54:05;;;;;;;;;;;;;;;0.34;85.50;98492.97;4993145;28;19922;-73